createdAt,value
2022-11-08T00:02:32.060Z,7.30
2022-11-08T00:05:39.708Z,10.60
2022-11-08T00:08:47.513Z,8.40
2022-11-08T00:11:55.426Z,11.40
2022-11-08T00:14:46.355Z,11.30
2022-11-08T00:17:35.752Z,8.20
2022-11-08T00:20:25.224Z,8.00
2022-11-08T00:23:14.803Z,11.50
2022-11-08T00:26:04.231Z,9.30
2022-11-08T00:28:53.699Z,9.80
2022-11-08T00:31:44.132Z,11.00
2022-11-08T00:37:23.454Z,10.80
2022-11-08T00:40:14.063Z,11.60
2022-11-08T00:43:03.513Z,13.10
2022-11-08T00:45:53.002Z,11.10
2022-11-08T00:48:42.584Z,11.70
2022-11-08T00:51:32.231Z,12.20
2022-11-08T00:54:22.258Z,11.80
2022-11-08T00:57:11.781Z,13.50
2022-11-08T01:00:01.326Z,11.90
2022-11-08T01:03:11.074Z,10.00
2022-11-08T01:06:05.848Z,10.90
2022-11-08T01:08:55.795Z,13.90
2022-11-08T01:11:47.265Z,15.10
2022-11-08T01:14:37.948Z,10.80
2022-11-08T01:17:27.404Z,9.20
2022-11-08T01:20:17.311Z,18.00
2022-11-08T01:23:07.442Z,8.90
2022-11-08T01:25:57.000Z,14.20
2022-11-08T01:28:47.113Z,10.50
2022-11-08T01:31:36.752Z,12.40
2022-11-08T01:34:26.327Z,12.90
2022-11-08T01:37:15.968Z,8.60
2022-11-08T01:40:07.591Z,14.30
2022-11-08T01:42:57.843Z,14.10
2022-11-08T01:46:28.066Z,11.60
2022-11-08T01:49:32.363Z,10.30
2022-11-08T01:52:31.370Z,10.00
2022-11-08T01:55:25.251Z,12.30
2022-11-08T01:58:18.283Z,12.50
2022-11-08T02:01:08.470Z,12.40
2022-11-08T02:03:59.748Z,12.10
2022-11-08T02:06:50.210Z,9.40
2022-11-08T02:09:42.440Z,13.30
2022-11-08T02:12:31.919Z,12.90
2022-11-08T02:15:24.878Z,14.30
2022-11-08T02:18:16.609Z,16.30
2022-11-08T02:21:12.063Z,13.80
2022-11-08T02:24:06.866Z,20.20
2022-11-08T02:26:57.596Z,14.90
2022-11-08T02:32:39.537Z,15.30
2022-11-08T02:35:28.994Z,12.80
2022-11-08T02:38:19.634Z,14.00
2022-11-08T02:41:09.103Z,18.50
2022-11-08T02:43:58.980Z,13.00
2022-11-08T02:46:48.493Z,19.60
2022-11-08T02:49:38.034Z,14.70
2022-11-08T02:52:27.502Z,13.40
2022-11-08T02:55:17.207Z,16.50
2022-11-08T02:58:06.856Z,14.10
2022-11-08T03:00:56.406Z,11.60
2022-11-08T03:03:46.052Z,11.20
2022-11-08T03:06:35.542Z,17.30
2022-11-08T03:09:26.502Z,18.60
2022-11-08T03:12:16.040Z,20.90
2022-11-08T03:15:08.001Z,20.80
2022-11-08T03:17:59.275Z,18.10
2022-11-08T03:20:48.685Z,20.10
2022-11-08T03:23:38.316Z,20.00
2022-11-08T03:26:27.736Z,22.00
2022-11-08T03:29:17.371Z,13.70
2022-11-08T03:32:06.938Z,14.10
2022-11-08T03:34:59.065Z,17.40
2022-11-08T03:37:52.101Z,17.50
2022-11-08T03:40:41.432Z,15.00
2022-11-08T03:43:31.031Z,17.10
2022-11-08T03:46:20.495Z,13.40
2022-11-08T03:49:10.451Z,15.70
2022-11-08T03:51:59.959Z,17.80
2022-11-08T03:54:49.552Z,12.20
2022-11-08T03:57:39.148Z,13.80
2022-11-08T04:00:29.892Z,16.30
2022-11-08T04:03:19.288Z,14.60
2022-11-08T04:06:09.416Z,15.70
2022-11-08T04:08:58.877Z,11.80
2022-11-08T04:12:06.628Z,9.70
2022-11-08T04:15:14.424Z,9.00
2022-11-08T04:18:22.368Z,12.20
2022-11-08T04:21:21.137Z,9.40
2022-11-08T04:24:10.551Z,12.60
2022-11-08T04:27:00.991Z,13.20
2022-11-08T04:32:38.710Z,9.30
2022-11-08T04:35:28.105Z,7.90
2022-11-08T04:38:18.272Z,10.40
2022-11-08T04:41:10.684Z,11.60
2022-11-08T04:43:59.686Z,9.80
2022-11-08T04:46:49.156Z,9.40
2022-11-08T04:49:38.563Z,14.80
2022-11-08T04:52:28.073Z,10.40
2022-11-08T04:55:17.680Z,8.30
2022-11-08T04:58:07.087Z,6.10
2022-11-08T05:01:00.995Z,7.20
2022-11-08T05:03:51.924Z,9.40
2022-11-08T05:06:41.021Z,7.30
2022-11-08T05:09:30.510Z,8.00
2022-11-08T05:12:19.922Z,7.20
2022-11-08T05:15:11.543Z,7.30
2022-11-08T05:18:00.893Z,8.10
2022-11-08T05:21:13.847Z,5.40
2022-11-08T05:24:05.406Z,7.50
2022-11-08T05:26:54.773Z,10.50
2022-11-08T05:29:44.239Z,9.30
2022-11-08T05:32:33.627Z,6.90
2022-11-08T05:35:23.262Z,7.20
2022-11-08T05:38:12.845Z,8.90
2022-11-08T05:41:04.325Z,8.00
2022-11-08T05:43:55.164Z,6.00
2022-11-08T05:46:44.635Z,7.60
2022-11-08T05:49:34.152Z,5.50
2022-11-08T05:52:23.774Z,8.00
2022-11-08T05:55:13.278Z,7.10
2022-11-08T05:58:05.450Z,7.40
2022-11-08T06:01:01.376Z,7.90
2022-11-08T06:03:50.495Z,7.40
2022-11-08T06:06:40.123Z,8.50
2022-11-08T06:09:29.479Z,11.40
2022-11-08T06:12:19.538Z,9.80
2022-11-08T06:15:10.189Z,16.10
2022-11-08T06:18:03.743Z,5.80
2022-11-08T06:20:52.681Z,7.30
2022-11-08T06:23:42.686Z,7.40
2022-11-08T06:26:31.703Z,6.70
2022-11-08T06:29:21.116Z,9.50
2022-11-08T06:32:10.622Z,6.80
2022-11-08T06:35:00.043Z,8.40
2022-11-08T06:37:49.515Z,14.50
2022-11-08T06:40:39.364Z,8.70
2022-11-08T06:43:29.220Z,9.20
2022-11-08T06:46:18.880Z,4.90
2022-11-08T06:49:08.309Z,6.70
2022-11-08T06:51:57.872Z,6.10
2022-11-08T06:54:47.231Z,8.60
2022-11-08T06:57:36.756Z,7.80
2022-11-08T07:00:26.867Z,6.60
2022-11-08T07:03:17.945Z,8.20
2022-11-08T07:06:08.891Z,7.30
2022-11-08T07:08:58.571Z,9.90
2022-11-08T07:11:47.980Z,10.60
2022-11-08T07:14:39.404Z,11.40
2022-11-08T07:17:29.775Z,5.60
2022-11-08T07:20:23.675Z,6.40
2022-11-08T07:23:13.111Z,7.90
2022-11-08T07:26:03.864Z,14.20
2022-11-08T07:28:53.158Z,6.50
2022-11-08T07:31:45.299Z,7.40
2022-11-08T07:34:35.759Z,9.40
2022-11-08T07:37:26.906Z,6.60
2022-11-08T07:40:17.024Z,10.30
2022-11-08T07:43:13.671Z,8.20
2022-11-08T07:46:05.004Z,12.50
2022-11-08T07:48:54.458Z,11.40
2022-11-08T07:51:44.030Z,10.50
2022-11-08T07:54:33.586Z,9.00
2022-11-08T07:57:25.238Z,7.80
2022-11-08T08:00:16.380Z,4.10
2022-11-08T08:03:08.217Z,6.50
2022-11-08T08:06:02.948Z,7.00
2022-11-08T08:08:52.503Z,7.20
2022-11-08T08:11:42.942Z,2.80
2022-11-08T08:14:32.510Z,6.30
2022-11-08T08:17:22.380Z,4.10
2022-11-08T08:20:17.089Z,5.50
2022-11-08T08:23:17.569Z,3.10
2022-11-08T08:26:24.546Z,5.10
2022-11-08T08:29:17.895Z,3.40
2022-11-08T08:32:11.084Z,5.00
2022-11-08T08:35:02.402Z,5.20
2022-11-08T08:37:57.120Z,4.10
2022-11-08T08:41:00.372Z,4.80
2022-11-08T08:43:51.297Z,3.40
2022-11-08T08:49:38.049Z,6.60
2022-11-08T08:53:13.952Z,5.90
2022-11-08T08:56:15.295Z,6.50
2022-11-08T09:02:26.087Z,5.50
2022-11-08T09:05:21.567Z,5.80
2022-11-08T09:08:23.385Z,6.70
2022-11-08T09:11:47.713Z,9.80
2022-11-08T09:14:43.146Z,8.50
2022-11-08T09:18:02.969Z,7.60
2022-11-08T09:21:00.900Z,10.50
2022-11-08T09:23:50.291Z,6.00
2022-11-08T09:26:39.793Z,7.30
2022-11-08T09:29:29.265Z,10.50
2022-11-08T09:32:24.772Z,6.80
2022-11-08T09:35:23.679Z,7.70
2022-11-08T09:38:13.026Z,11.10
2022-11-08T09:41:25.688Z,8.50
2022-11-08T09:44:26.795Z,7.10
2022-11-08T09:47:24.002Z,5.30
2022-11-08T09:50:20.199Z,8.60
2022-11-08T09:53:18.193Z,6.00
2022-11-08T09:56:16.658Z,7.70
2022-11-08T09:59:20.045Z,11.60
2022-11-08T10:02:18.047Z,11.30
2022-11-08T10:05:15.244Z,9.40
2022-11-08T10:08:11.205Z,9.20
2022-11-08T10:11:18.613Z,12.00
2022-11-08T10:14:25.065Z,10.50
2022-11-08T10:17:37.795Z,9.10
2022-11-08T10:20:39.044Z,14.30
2022-11-08T10:23:39.657Z,9.20
2022-11-08T10:26:35.417Z,7.20
2022-11-08T10:29:31.701Z,13.00
2022-11-08T10:32:23.055Z,8.50
2022-11-08T10:35:24.466Z,5.50
2022-11-08T10:38:25.489Z,8.10
2022-11-08T10:41:21.367Z,8.70
2022-11-08T10:44:15.366Z,11.90
2022-11-08T10:47:07.594Z,7.90
2022-11-08T10:50:02.483Z,10.10
2022-11-08T10:52:58.280Z,8.20
2022-11-08T10:55:55.884Z,6.40
2022-11-08T10:58:44.961Z,4.60
2022-11-08T11:01:34.524Z,9.90
2022-11-08T11:04:28.686Z,7.80
2022-11-08T11:07:31.034Z,7.50
2022-11-08T11:10:25.546Z,6.60
2022-11-08T11:13:19.224Z,10.30
2022-11-08T11:16:14.348Z,9.90
2022-11-08T11:19:06.395Z,10.30
2022-11-08T11:22:01.689Z,12.70
2022-11-08T11:24:54.231Z,7.40
2022-11-08T11:27:44.121Z,7.90
2022-11-08T11:30:34.838Z,7.80
2022-11-08T11:33:25.726Z,7.50
2022-11-08T11:36:19.940Z,7.70
2022-11-08T11:39:16.219Z,5.80
2022-11-08T11:42:39.212Z,5.20
2022-11-08T11:45:28.840Z,5.40
2022-11-08T11:48:21.854Z,2.80
2022-11-08T11:51:11.628Z,3.80
2022-11-08T11:54:05.038Z,3.20
2022-11-08T11:57:01.201Z,2.30
2022-11-08T12:00:01.544Z,3.30
2022-11-08T12:03:22.132Z,2.00
2022-11-08T12:06:28.389Z,2.90
2022-11-08T12:09:33.379Z,2.70
2022-11-08T12:12:37.855Z,8.20
2022-11-08T12:15:34.778Z,2.40
2022-11-08T12:18:43.882Z,3.80
2022-11-08T12:21:40.118Z,3.00
2022-11-08T12:24:42.630Z,2.90
2022-11-08T12:27:45.662Z,3.30
2022-11-08T12:30:47.155Z,2.10
2022-11-08T12:33:46.490Z,2.80
2022-11-08T12:36:45.355Z,2.70
2022-11-08T12:39:40.346Z,1.50
2022-11-08T12:42:47.689Z,1.40
2022-11-08T12:45:51.513Z,1.60
2022-11-08T12:49:01.231Z,2.20
2022-11-08T12:52:08.563Z,2.40
2022-11-08T12:55:03.043Z,2.70
2022-11-08T12:58:00.307Z,3.30
2022-11-08T13:00:52.949Z,3.40
2022-11-08T13:04:18.508Z,4.40
2022-11-08T13:07:18.043Z,3.30
2022-11-08T13:10:16.661Z,4.30
2022-11-08T13:13:18.920Z,4.10
2022-11-08T13:16:11.302Z,4.50
2022-11-08T13:19:03.850Z,4.50
2022-11-08T13:21:53.739Z,3.50
2022-11-08T13:24:45.086Z,4.40
2022-11-08T13:27:37.087Z,5.50
2022-11-08T13:30:43.446Z,7.30
2022-11-08T13:33:34.200Z,6.50
2022-11-08T13:36:33.354Z,6.00
2022-11-08T13:39:45.841Z,5.40
2022-11-08T13:42:58.794Z,5.90
2022-11-08T13:45:49.318Z,6.40
2022-11-08T13:49:05.502Z,7.30
2022-11-08T13:52:26.160Z,5.30
2022-11-08T13:55:46.295Z,7.40
2022-11-08T13:58:38.327Z,6.20
2022-11-08T14:01:59.716Z,4.10
2022-11-08T14:04:49.359Z,4.60
2022-11-08T14:07:46.098Z,3.60
2022-11-08T14:10:47.280Z,3.90
2022-11-08T14:13:50.111Z,2.60
2022-11-08T14:16:49.364Z,7.00
2022-11-08T14:19:40.667Z,4.20
2022-11-08T14:22:31.787Z,3.30
2022-11-08T14:25:30.533Z,5.10
2022-11-08T14:28:27.440Z,5.60
2022-11-08T14:31:28.682Z,5.80
2022-11-08T14:34:37.658Z,5.00
2022-11-08T14:37:28.232Z,4.60
2022-11-08T14:40:20.718Z,3.00
2022-11-08T14:43:12.880Z,3.90
2022-11-08T14:46:12.735Z,4.40
2022-11-08T14:49:11.236Z,2.80
2022-11-08T14:52:15.001Z,3.90
2022-11-08T14:55:07.786Z,5.40
2022-11-08T14:57:57.181Z,4.00
2022-11-08T15:00:49.150Z,4.70
2022-11-08T15:03:44.391Z,3.90
2022-11-08T15:06:36.789Z,4.20
2022-11-08T15:09:30.673Z,5.00
2022-11-08T15:12:23.191Z,5.50
2022-11-08T15:15:26.675Z,5.80
2022-11-08T15:18:17.833Z,6.70
2022-11-08T15:21:21.997Z,4.80
2022-11-08T15:24:14.502Z,4.90
2022-11-08T15:27:18.049Z,5.40
2022-11-08T15:30:15.362Z,7.80
2022-11-08T15:33:22.715Z,3.80
2022-11-08T15:36:14.168Z,5.40
2022-11-08T15:39:06.504Z,4.70
2022-11-08T15:42:04.260Z,4.40
2022-11-08T15:45:04.397Z,3.60
2022-11-08T15:48:00.691Z,3.70
2022-11-08T15:50:50.679Z,7.80
2022-11-08T15:53:41.456Z,4.80
2022-11-08T15:56:31.064Z,8.10
2022-11-08T15:59:23.395Z,4.10
2022-11-08T16:02:14.450Z,10.40
2022-11-08T16:05:16.075Z,10.10
2022-11-08T16:08:07.007Z,5.60
2022-11-08T16:11:00.827Z,5.80
2022-11-08T16:13:51.572Z,7.90
2022-11-08T16:16:44.276Z,6.00
2022-11-08T16:19:33.913Z,5.50
2022-11-08T16:22:23.607Z,6.40
2022-11-08T16:25:13.445Z,6.60
2022-11-08T16:28:08.931Z,9.40
2022-11-08T16:30:58.696Z,5.30
2022-11-08T16:33:49.297Z,8.80
2022-11-08T16:36:38.576Z,6.70
2022-11-08T16:39:28.733Z,6.50
2022-11-08T16:42:18.411Z,8.40
2022-11-08T16:45:09.591Z,8.80
2022-11-08T16:47:58.965Z,7.00
2022-11-08T16:50:48.705Z,7.90
2022-11-08T16:53:38.006Z,5.60
2022-11-08T16:56:27.366Z,5.70
2022-11-08T16:59:16.790Z,8.20
2022-11-08T17:02:14.687Z,8.80
2022-11-08T17:05:12.065Z,6.50
2022-11-08T17:08:01.553Z,6.00
2022-11-08T17:10:50.946Z,11.10
2022-11-08T17:13:40.845Z,7.80
2022-11-08T17:16:30.530Z,7.80
2022-11-08T17:19:19.946Z,7.80
2022-11-08T17:22:09.397Z,9.60
2022-11-08T17:24:58.795Z,8.20
2022-11-08T17:27:49.370Z,8.50
2022-11-08T17:30:43.490Z,12.80
2022-11-08T17:33:32.962Z,7.40
2022-11-08T17:36:22.581Z,7.50
2022-11-08T17:39:13.479Z,11.10
2022-11-08T17:42:02.866Z,11.20
2022-11-08T17:44:53.960Z,10.60
2022-11-08T17:47:43.455Z,9.30
2022-11-08T17:50:33.129Z,5.90
2022-11-08T17:53:23.106Z,6.90
2022-11-08T17:56:12.651Z,5.70
2022-11-08T17:59:03.512Z,8.10
2022-11-08T18:01:52.658Z,6.40
2022-11-08T18:04:42.157Z,6.50
2022-11-08T18:07:31.483Z,8.40
2022-11-08T18:10:20.975Z,8.20
2022-11-08T18:13:11.256Z,6.20
2022-11-08T18:16:13.295Z,7.50
2022-11-08T18:19:02.466Z,7.60
2022-11-08T18:21:51.867Z,4.80
2022-11-08T18:24:44.805Z,6.30
2022-11-08T18:27:38.297Z,3.90
2022-11-08T18:30:27.905Z,8.90
2022-11-08T18:33:18.192Z,5.60
2022-11-08T18:36:12.981Z,7.40
2022-11-08T18:39:03.319Z,10.20
2022-11-08T18:41:52.942Z,8.50
2022-11-08T18:44:42.609Z,8.20
2022-11-08T18:47:32.844Z,6.70
2022-11-08T18:50:22.377Z,7.00
2022-11-08T18:53:11.837Z,5.90
2022-11-08T18:56:01.455Z,6.50
2022-11-08T18:58:52.156Z,8.40
2022-11-08T19:01:41.787Z,8.80
2022-11-08T19:04:31.412Z,8.10
2022-11-08T19:07:21.393Z,8.60
2022-11-08T19:10:11.453Z,11.40
2022-11-08T19:13:01.147Z,7.50
2022-11-08T19:15:57.968Z,11.30
2022-11-08T19:18:49.117Z,12.20
2022-11-08T19:21:41.236Z,10.90
2022-11-08T19:24:30.412Z,9.40
2022-11-08T19:27:20.843Z,7.60
2022-11-08T19:33:01.165Z,8.70
2022-11-08T19:35:52.115Z,12.00
2022-11-08T19:38:42.520Z,7.80
2022-11-08T19:41:32.033Z,8.90
2022-11-08T19:44:21.607Z,5.60
2022-11-08T19:47:11.180Z,7.60
2022-11-08T19:50:00.820Z,8.60
2022-11-08T19:52:51.502Z,6.60
2022-11-08T19:58:30.615Z,8.10
2022-11-08T20:01:22.731Z,9.90
2022-11-08T20:04:13.944Z,9.60
2022-11-08T20:07:03.456Z,8.60
2022-11-08T20:09:54.277Z,8.00
2022-11-08T20:12:43.711Z,6.80
2022-11-08T20:15:33.102Z,7.30
2022-11-08T20:18:22.603Z,9.10
2022-11-08T20:21:15.419Z,9.10
2022-11-08T20:24:05.833Z,11.40
2022-11-08T20:29:44.347Z,6.40
2022-11-08T20:32:33.756Z,8.30
2022-11-08T20:35:23.734Z,7.00
2022-11-08T20:38:13.164Z,11.20
2022-11-08T20:41:03.687Z,9.70
2022-11-08T20:46:41.588Z,10.80
2022-11-08T20:49:31.082Z,7.40
2022-11-08T20:52:22.879Z,11.60
2022-11-08T20:55:12.289Z,13.00
2022-11-08T20:58:01.983Z,8.90
2022-11-08T21:00:58.430Z,9.90
2022-11-08T21:03:48.843Z,10.80
2022-11-08T21:06:40.135Z,7.60
2022-11-08T21:09:40.466Z,12.90
2022-11-08T21:12:41.329Z,7.90
2022-11-08T21:15:30.819Z,8.00
2022-11-08T21:18:20.881Z,9.50
2022-11-08T21:24:00.266Z,8.60
2022-11-08T21:26:49.864Z,7.70
2022-11-08T21:29:39.791Z,8.60
2022-11-08T21:32:29.291Z,10.60
2022-11-08T21:35:18.841Z,9.20
2022-11-08T21:38:08.682Z,14.20
2022-11-08T21:41:04.907Z,8.90
2022-11-08T21:43:53.947Z,8.00
2022-11-08T21:46:43.590Z,12.70
2022-11-08T21:49:32.962Z,8.40
2022-11-08T21:52:22.593Z,9.60
2022-11-08T21:55:12.762Z,8.00
2022-11-08T21:58:03.324Z,10.40
2022-11-08T22:00:52.768Z,9.20
2022-11-08T22:03:42.339Z,10.60
2022-11-08T22:06:31.911Z,10.90
2022-11-08T22:09:21.486Z,10.50
2022-11-08T22:12:15.919Z,12.60
2022-11-08T22:15:15.803Z,11.20
2022-11-08T22:18:36.848Z,12.90
2022-11-08T22:21:39.624Z,9.60
2022-11-08T22:24:30.689Z,7.30
2022-11-08T22:27:21.707Z,10.40
2022-11-08T22:30:16.906Z,9.30
2022-11-08T22:33:09.415Z,11.70
2022-11-08T22:35:59.380Z,11.20
2022-11-08T22:38:49.363Z,10.70
2022-11-08T22:41:38.950Z,10.10
2022-11-08T22:44:30.859Z,9.90
2022-11-08T22:47:23.806Z,12.40
2022-11-08T22:50:16.693Z,10.80
2022-11-08T22:53:07.550Z,8.20
2022-11-08T22:55:57.371Z,11.10
2022-11-08T22:58:49.701Z,12.00
2022-11-08T23:01:39.428Z,8.40
2022-11-08T23:04:35.035Z,10.30
2022-11-08T23:07:54.158Z,13.20
2022-11-08T23:11:09.108Z,11.70
2022-11-08T23:14:19.647Z,14.10
2022-11-08T23:20:23.552Z,8.80
2022-11-08T23:23:31.571Z,10.10
2022-11-08T23:26:45.594Z,7.90
2022-11-08T23:29:53.752Z,12.10
2022-11-08T23:32:51.045Z,8.90
2022-11-08T23:36:03.385Z,10.90
2022-11-08T23:38:53.826Z,11.60
2022-11-08T23:42:02.323Z,14.20
2022-11-08T23:44:52.537Z,9.30
2022-11-08T23:47:42.709Z,9.90
2022-11-08T23:50:40.918Z,10.70
2022-11-08T23:53:43.714Z,10.10
2022-11-08T23:56:34.167Z,11.80
2022-11-08T23:59:23.740Z,11.90
